Time;durP1;ratioP1;P1;durP2;ratioP2;P2;SDS_P1;SDS_P2;PMS_P1;PMS_P2;Temp;Humidity;BMP_temperature;BMP_pressure;BME280_temperature;BME280_humidity;BME280_pressure;Samples;Min_cycle;Max_cycle;Signal;HPM_P1;HPM_P2
2023/07/27 00:01:14;;;;;;;9.98;4.85;;;;;;;14.14;100.00;100811.38;4813046;29;20062;-93
2023/07/27 00:03:49;;;;;;;9.93;5.33;;;;;;;14.04;100.00;100823.72;4812561;29;20034;-94
2023/07/27 00:06:14;;;;;;;8.15;5.05;;;;;;;14.05;100.00;100819.09;4812874;29;20125;-93
2023/07/27 00:08:40;;;;;;;8.53;4.50;;;;;;;13.97;100.00;100806.66;4812643;29;20162;-93
2023/07/27 00:11:07;;;;;;;9.43;4.97;;;;;;;13.97;100.00;100800.38;4811902;29;20042;-94
2023/07/27 00:13:36;;;;;;;11.23;5.00;;;;;;;13.97;100.00;100803.13;4812471;29;20560;-93
2023/07/27 00:16:02;;;;;;;10.02;4.85;;;;;;;14.05;100.00;100808.19;4811862;29;20030;-93
2023/07/27 00:18:27;;;;;;;9.30;4.83;;;;;;;14.02;100.00;100795.03;4828031;29;20132;-93
2023/07/27 00:20:53;;;;;;;7.55;4.43;;;;;;;14.01;100.00;100813.31;4811448;29;20030;-93
2023/07/27 00:23:18;;;;;;;9.43;4.77;;;;;;;13.92;100.00;100792.94;4812068;29;20038;-93
2023/07/27 00:25:44;;;;;;;9.53;4.73;;;;;;;13.87;100.00;100792.78;4812027;29;20038;-93
2023/07/27 00:28:12;;;;;;;8.10;4.60;;;;;;;13.93;100.00;100800.03;4812518;29;20034;-94
2023/07/27 00:30:38;;;;;;;7.05;5.05;;;;;;;13.95;100.00;100787.00;4811653;29;20214;-94
2023/07/27 00:33:06;;;;;;;11.90;5.13;;;;;;;13.95;100.00;100797.91;4796631;29;20038;-93
2023/07/27 00:35:33;;;;;;;7.43;5.27;;;;;;;13.89;100.00;100787.91;4796364;29;20287;-92
2023/07/27 00:38:01;;;;;;;11.07;5.50;;;;;;;13.90;100.00;100795.03;4796053;29;20042;-93
2023/07/27 00:40:29;;;;;;;10.35;5.50;;;;;;;13.89;100.00;100789.84;4811911;29;20054;-93
2023/07/27 00:42:54;;;;;;;7.88;4.90;;;;;;;13.91;100.00;100788.53;4811719;29;20158;-94
2023/07/27 00:45:20;;;;;;;7.67;5.37;;;;;;;13.81;100.00;100778.22;4812375;29;20061;-94
2023/07/27 00:47:48;;;;;;;11.07;5.17;;;;;;;13.78;100.00;100775.16;4811127;29;20034;-94
2023/07/27 00:50:14;;;;;;;7.45;5.30;;;;;;;13.77;100.00;100771.56;4811578;29;20034;-94
2023/07/27 00:52:42;;;;;;;11.15;5.63;;;;;;;13.72;100.00;100767.94;4795998;29;20038;-94
2023/07/27 00:55:08;;;;;;;10.60;5.70;;;;;;;13.80;100.00;100768.41;4797310;29;20042;-94
2023/07/27 00:57:36;;;;;;;9.50;5.78;;;;;;;13.75;100.00;100762.81;4811223;29;20031;-93
2023/07/27 01:00:14;;;;;;;9.77;5.50;;;;;;;13.76;100.00;100755.44;4796194;29;20038;-93
2023/07/27 01:02:47;;;;;;;11.25;5.82;;;;;;;13.88;100.00;100763.63;4811446;29;20034;-94
2023/07/27 01:05:13;;;;;;;13.20;6.75;;;;;;;13.91;100.00;100744.06;4811493;29;20043;-93
2023/07/27 01:07:41;;;;;;;9.77;5.83;;;;;;;13.79;100.00;100738.59;4810807;29;20034;-93
2023/07/27 01:10:07;;;;;;;13.85;6.05;;;;;;;13.82;100.00;100736.25;4827247;29;20030;-94
2023/07/27 01:12:52;;;;;;;10.73;6.35;;;;;;;13.75;100.00;100735.53;4811169;29;20041;-93
2023/07/27 01:15:28;;;;;;;11.80;6.30;;;;;;;13.78;100.00;100735.06;4812061;29;20043;-94
2023/07/27 01:21:34;;;;;;;10.43;6.40;;;;;;;13.68;100.00;100726.66;4803930;29;20065;-94
2023/07/27 01:27:38;;;;;;;13.73;7.00;;;;;;;13.66;100.00;100728.81;4813748;29;20094;-94
2023/07/27 01:33:33;;;;;;;11.07;6.57;;;;;;;13.53;100.00;100724.44;4827058;29;20147;-94
2023/07/27 01:36:15;;;;;;;13.30;7.27;;;;;;;13.43;100.00;100710.56;4810980;29;20037;-93
2023/07/27 01:38:59;;;;;;;13.23;6.95;;;;;;;13.48;100.00;100705.25;4811020;29;20039;-93
2023/07/27 01:41:36;;;;;;;16.17;7.80;;;;;;;13.59;100.00;100709.84;4810864;29;20038;-94
2023/07/27 01:44:09;;;;;;;13.95;7.78;;;;;;;13.60;100.00;100695.16;4810631;29;20066;-93
2023/07/27 01:46:39;;;;;;;15.98;8.18;;;;;;;13.57;100.00;100690.19;4810127;29;20121;-93
2023/07/27 02:06:01;;;;;;;14.57;8.23;;;;;;;13.86;100.00;100669.25;4770627;30;20079;-93
2023/07/27 02:26:44;;;;;;;17.58;7.55;;;;;;;13.92;100.00;100615.66;4770106;30;20066;-93
2023/07/27 02:29:27;;;;;;;15.18;8.20;;;;;;;13.93;100.00;100611.00;4784643;29;20360;-93
2023/07/27 02:35:15;;;;;;;16.83;8.05;;;;;;;13.98;100.00;100606.47;4807813;29;20412;-93
2023/07/27 02:41:09;;;;;;;13.52;7.75;;;;;;;13.99;100.00;100590.94;4807363;29;20499;-93
2023/07/27 02:47:13;;;;;;;14.18;8.13;;;;;;;14.05;100.00;100581.75;4807750;29;20045;-94
2023/07/27 02:53:35;;;;;;;15.20;8.13;;;;;;;14.12;100.00;100584.34;4788920;29;20084;-93
2023/07/27 03:00:17;;;;;;;13.43;8.45;;;;;;;14.11;100.00;100582.69;4787188;30;20530;-93
2023/07/27 03:02:47;;;;;;;16.02;7.80;;;;;;;14.06;100.00;100567.06;4787877;30;20591;-93
2023/07/27 03:49:47;;;;;;;12.05;7.43;;;;;;;13.92;100.00;100459.34;4769470;30;20058;-95
2023/07/27 04:34:20;;;;;;;6.90;4.95;;;;;;;13.65;100.00;100419.09;4808552;29;20047;-92
2023/07/27 04:40:20;;;;;;;;;;;;;;;;;;;;;
2023/07/27 04:45:57;;;;;;;9.38;5.13;;;;;;;13.68;100.00;100394.06;4777276;29;20073;-92
2023/07/27 04:52:05;;;;;;;;;;;;;;;;;;;;;
2023/07/27 04:54:46;;;;;;;9.60;4.97;;;;;;;13.72;100.00;100389.78;4795693;29;20046;-91
2023/07/27 04:57:21;;;;;;;9.38;5.35;;;;;;;13.72;100.00;100386.22;4808361;29;20038;-91
2023/07/27 05:06:51;;;;;;;8.15;5.60;;;;;;;13.76;100.00;100385.47;4735618;30;20548;-91
2023/07/27 05:13:52;;;;;;;;;;;;;;;;;;;;;
2023/07/27 05:16:49;;;;;;;8.77;5.78;;;;;;;13.80;100.00;100356.66;4700338;30;20042;-91
2023/07/27 05:19:53;;;;;;;10.17;5.47;;;;;;;13.90;100.00;100358.69;4713293;30;20052;-89
2023/07/27 05:22:24;;;;;;;8.52;5.50;;;;;;;13.94;100.00;100343.50;4717692;30;20041;-89
2023/07/27 05:24:49;;;;;;;11.40;5.88;;;;;;;14.01;100.00;100348.75;4739372;29;20050;-88
2023/07/27 05:27:15;;;;;;;9.03;6.20;;;;;;;14.08;100.00;100348.59;4792019;29;20408;-87
2023/07/27 05:29:41;;;;;;;9.43;5.83;;;;;;;14.11;100.00;100343.44;4808043;29;20039;-90
2023/07/27 05:32:07;;;;;;;7.65;5.75;;;;;;;14.10;100.00;100328.19;4808058;29;20071;-86
2023/07/27 05:34:38;;;;;;;8.43;5.57;;;;;;;14.11;100.00;100335.25;4807693;29;20064;-86
2023/07/27 05:37:03;;;;;;;6.20;5.07;;;;;;;14.12;100.00;100342.38;4807893;29;20378;-86
2023/07/27 05:39:29;;;;;;;7.37;5.57;;;;;;;14.18;100.00;100341.38;4791781;29;20046;-87
2023/07/27 05:41:54;;;;;;;6.60;5.33;;;;;;;14.23;100.00;100331.59;4807157;29;20121;-86
2023/07/27 05:44:21;;;;;;;9.13;5.50;;;;;;;14.25;100.00;100337.66;4805641;29;20450;-86
2023/07/27 05:46:46;;;;;;;7.93;4.95;;;;;;;14.27;100.00;100335.47;4809342;29;20174;-87
2023/07/27 05:49:12;;;;;;;7.80;5.55;;;;;;;14.28;100.00;100318.84;4809743;29;20531;-87
2023/07/27 05:51:37;;;;;;;6.30;4.70;;;;;;;14.37;100.00;100327.44;4825797;29;20091;-88
2023/07/27 05:54:03;;;;;;;8.77;4.97;;;;;;;14.43;100.00;100331.88;4809498;29;20038;-87
2023/07/27 05:56:29;;;;;;;8.47;4.90;;;;;;;14.39;100.00;100315.19;4825756;29;20045;-86
2023/07/27 05:58:54;;;;;;;6.80;5.33;;;;;;;14.44;100.00;100322.63;4809561;29;20118;-85
2023/07/27 06:01:20;;;;;;;6.40;4.85;;;;;;;14.47;100.00;100313.09;4809260;29;20034;-85
2023/07/27 06:03:46;;;;;;;7.73;5.33;;;;;;;14.53;100.00;100318.34;4825766;29;20121;-85
2023/07/27 06:06:11;;;;;;;7.72;5.53;;;;;;;14.62;100.00;100326.94;4809528;29;20122;-85
2023/07/27 06:08:37;;;;;;;7.77;5.00;;;;;;;14.65;100.00;100315.50;4809096;29;20069;-85
2023/07/27 06:11:06;;;;;;;6.38;4.88;;;;;;;14.66;100.00;100316.34;4793375;29;20043;-86
2023/07/27 06:13:32;;;;;;;7.27;5.13;;;;;;;14.71;100.00;100313.69;4808930;29;20041;-86
2023/07/27 06:15:58;;;;;;;7.65;5.45;;;;;;;14.70;100.00;100310.13;4809002;29;20087;-85
2023/07/27 06:18:23;;;;;;;8.48;5.32;;;;;;;14.77;100.00;100315.38;4809610;29;20548;-86
2023/07/27 06:20:49;;;;;;;6.37;4.60;;;;;;;14.78;100.00;100306.09;4793669;29;20038;-86
2023/07/27 06:23:14;;;;;;;7.47;5.00;;;;;;;14.84;100.00;100304.25;4809525;29;20029;-86
2023/07/27 06:25:43;;;;;;;7.73;4.60;;;;;;;14.90;100.00;100303.22;4825371;29;20365;-86
2023/07/27 06:28:09;;;;;;;7.20;4.70;;;;;;;15.00;100.00;100303.34;4825537;29;20110;-86
2023/07/27 06:30:36;;;;;;;4.93;4.00;;;;;;;15.02;100.00;100308.53;4825421;29;20065;-86
2023/07/27 06:33:01;;;;;;;7.03;3.95;;;;;;;15.11;100.00;100300.69;4808705;29;20134;-86
2023/07/27 06:35:27;;;;;;;6.10;4.13;;;;;;;15.09;100.00;100301.78;4808379;29;20484;-87
2023/07/27 06:37:53;;;;;;;5.57;4.28;;;;;;;15.16;100.00;100298.84;4793661;29;20058;-86
2023/07/27 06:40:18;;;;;;;5.77;4.30;;;;;;;15.15;100.00;100294.44;4824668;29;20038;-87
2023/07/27 06:42:44;;;;;;;5.38;3.47;;;;;;;15.21;100.00;100300.78;4808397;29;20030;-88
2023/07/27 06:45:10;;;;;;;4.77;3.53;;;;;;;15.16;100.00;100290.66;4808747;29;20042;-87
2023/07/27 06:47:36;;;;;;;4.90;3.88;;;;;;;15.23;100.00;100306.81;4808719;29;20050;-87
2023/07/27 06:50:02;;;;;;;6.73;3.97;;;;;;;15.17;100.00;100292.28;4824787;29;20549;-87
2023/07/27 06:52:28;;;;;;;5.28;3.35;;;;;;;15.19;100.00;100289.28;4808705;29;20392;-87
2023/07/27 06:54:54;;;;;;;7.10;3.83;;;;;;;15.22;100.00;100292.34;4824937;29;20042;-88
2023/07/27 06:57:22;;;;;;;5.73;3.93;;;;;;;15.22;100.00;100291.50;4808212;29;20729;-89
2023/07/27 06:59:50;;;;;;;6.50;4.50;;;;;;;15.22;100.00;100294.22;4808475;29;20065;-88
2023/07/27 07:02:21;;;;;;;4.72;3.95;;;;;;;15.20;100.00;100288.19;4808414;29;20073;-88
2023/07/27 07:04:49;;;;;;;7.00;4.43;;;;;;;15.24;100.00;100290.16;4808725;29;20118;-89
2023/07/27 07:07:22;;;;;;;6.75;4.47;;;;;;;15.27;100.00;100292.38;4808705;29;20038;-89
2023/07/27 07:09:59;;;;;;;6.03;4.70;;;;;;;15.32;100.00;100285.28;4809177;29;20044;-93
2023/07/27 07:12:27;;;;;;;8.38;4.72;;;;;;;15.31;100.00;100287.22;4824260;29;20552;-89
2023/07/27 07:14:55;;;;;;;6.63;4.57;;;;;;;15.37;100.00;100299.03;4793722;29;20046;-89
2023/07/27 07:17:23;;;;;;;8.45;4.53;;;;;;;15.40;100.00;100293.84;4824594;29;20487;-89
2023/07/27 07:19:48;;;;;;;7.93;4.68;;;;;;;15.42;100.00;100307.25;4808444;29;20606;-90
2023/07/27 07:22:14;;;;;;;6.97;4.77;;;;;;;15.43;100.00;100296.06;4808365;29;20080;-89
2023/07/27 07:24:42;;;;;;;7.60;4.80;;;;;;;15.43;100.00;100290.59;4793448;29;20114;-89
2023/07/27 07:27:07;;;;;;;6.18;4.88;;;;;;;15.44;100.00;100297.72;4793185;29;20030;-89
2023/07/27 07:29:35;;;;;;;5.47;4.80;;;;;;;15.50;100.00;100295.84;4824347;29;20033;-89
2023/07/27 07:32:01;;;;;;;6.13;4.18;;;;;;;15.55;100.00;100293.13;4809088;29;20104;-89
2023/07/27 07:34:32;;;;;;;6.20;4.20;;;;;;;15.67;100.00;100284.75;4808348;29;20039;-89
2023/07/27 07:37:03;;;;;;;5.43;4.50;;;;;;;15.78;100.00;100283.75;4793655;29;20476;-89
2023/07/27 07:39:31;;;;;;;5.95;3.63;;;;;;;15.85;100.00;100272.56;4808987;29;20038;-90
2023/07/27 07:41:57;;;;;;;6.35;4.25;;;;;;;15.91;100.00;100271.50;4793036;29;20035;-89
2023/07/27 07:44:23;;;;;;;7.63;4.65;;;;;;;16.06;100.00;100269.94;4824417;29;20040;-89
2023/07/27 07:46:51;;;;;;;4.37;3.47;;;;;;;16.15;100.00;100282.06;4808877;29;20141;-90
2023/07/27 07:49:18;;;;;;;3.53;2.97;;;;;;;16.00;100.00;100293.72;4796528;29;20039;-89
2023/07/27 07:51:46;;;;;;;4.32;2.95;;;;;;;15.93;100.00;100269.34;4827435;29;20073;-89
2023/07/27 07:54:14;;;;;;;4.68;3.08;;;;;;;15.86;100.00;100284.34;4796589;29;20395;-89
2023/07/27 07:56:39;;;;;;;4.90;3.30;;;;;;;15.90;100.00;100274.50;4827809;29;20034;-90
2023/07/27 07:59:05;;;;;;;4.18;3.25;;;;;;;15.90;100.00;100274.50;4811358;29;20031;-90
2023/07/27 08:01:33;;;;;;;3.30;2.90;;;;;;;15.90;100.00;100279.97;4796274;29;20034;-90
2023/07/27 08:04:04;;;;;;;4.30;3.40;;;;;;;15.88;100.00;100282.97;4796481;29;20035;-89
2023/07/27 08:06:30;;;;;;;3.92;3.53;;;;;;;15.93;100.00;100279.47;4812185;29;20114;-89
2023/07/27 08:08:58;;;;;;;4.43;3.20;;;;;;;15.93;100.00;100271.28;4828080;29;20068;-90
2023/07/27 08:11:24;;;;;;;3.80;3.40;;;;;;;15.97;100.00;100288.78;4810612;29;20494;-90
2023/07/27 08:14:02;;;;;;;;;;;;;;;;;;;;;
2023/07/27 08:16:29;;;;;;;4.83;3.70;;;;;;;15.99;100.00;100267.47;4827824;29;20295;-89
2023/07/27 08:19:04;;;;;;;5.57;3.80;;;;;;;16.11;100.00;100275.47;4811075;29;20133;-89
2023/07/27 08:21:30;;;;;;;4.40;3.25;;;;;;;16.13;100.00;100274.09;4797283;29;20502;-90
2023/07/27 08:23:55;;;;;;;3.13;2.77;;;;;;;16.10;100.00;100269.13;4810677;29;20038;-89
2023/07/27 08:26:21;;;;;;;5.68;3.70;;;;;;;16.17;100.00;100270.84;4810706;29;20407;-89
2023/07/27 08:28:47;;;;;;;4.37;3.80;;;;;;;16.12;100.00;100261.50;4810534;29;20037;-90
2023/07/27 08:31:20;;;;;;;4.65;4.15;;;;;;;16.18;100.00;100270.56;4811040;29;20038;-90
2023/07/27 08:33:48;;;;;;;4.95;4.25;;;;;;;16.23;100.00;100267.03;4810864;29;20044;-89
2023/07/27 08:36:18;;;;;;;4.73;3.97;;;;;;;16.26;100.00;100266.50;4811275;29;20060;-89
2023/07/27 08:38:44;;;;;;;5.88;4.32;;;;;;;16.27;100.00;100257.19;4810665;29;20061;-89
2023/07/27 08:41:09;;;;;;;5.80;4.47;;;;;;;16.28;100.00;100262.41;4810137;29;20039;-89
2023/07/27 08:43:35;;;;;;;8.82;4.57;;;;;;;16.35;100.00;100267.63;4811588;29;20034;-89
2023/07/27 08:46:02;;;;;;;5.03;4.33;;;;;;;16.34;100.00;100273.34;4810842;29;20077;-89
2023/07/27 08:48:29;;;;;;;6.65;4.15;;;;;;;16.40;100.00;100272.28;4810492;29;20030;-89
2023/07/27 08:50:57;;;;;;;4.60;4.20;;;;;;;16.40;100.00;100266.81;4810530;29;20046;-89
2023/07/27 08:53:34;;;;;;;4.95;4.45;;;;;;;16.41;100.00;100274.75;4810785;29;20087;-89
2023/07/27 08:56:01;;;;;;;4.80;4.20;;;;;;;16.44;100.00;100262.44;4827025;29;20039;-89
2023/07/27 08:58:36;;;;;;;;;;;;;;;;;;;;;
2023/07/27 09:01:19;;;;;;;4.03;3.42;;;;;;;16.40;100.00;100273.13;4827307;29;20027;-89
2023/07/27 09:03:54;;;;;;;4.07;3.47;;;;;;;16.38;100.00;100263.53;4811404;29;20046;-89
2023/07/27 09:06:52;;;;;;;4.95;3.10;;;;;;;16.38;100.00;100258.84;4796505;29;20137;-89
2023/07/27 09:09:22;;;;;;;3.53;2.80;;;;;;;16.31;100.00;100263.75;4810369;29;20576;-89
2023/07/27 09:11:57;;;;;;;4.05;2.90;;;;;;;16.40;100.00;100266.81;4826355;29;20179;-89
2023/07/27 09:14:26;;;;;;;4.15;2.72;;;;;;;16.34;100.00;100257.75;4795694;29;20515;-89
2023/07/27 09:16:51;;;;;;;4.43;2.90;;;;;;;16.46;100.00;100262.97;4810330;29;20041;-89
2023/07/27 09:19:18;;;;;;;3.73;3.27;;;;;;;16.52;100.00;100270.16;4810450;29;20042;-89
2023/07/27 09:21:48;;;;;;;4.43;3.05;;;;;;;16.46;100.00;100262.97;4810000;29;20041;-88
2023/07/27 09:24:16;;;;;;;3.65;3.22;;;;;;;16.54;100.00;100264.41;4810047;29;20031;-89
2023/07/27 09:26:49;;;;;;;5.73;3.30;;;;;;;16.54;100.00;100272.63;4810014;29;20038;-89
2023/07/27 09:29:27;;;;;;;;;;;;;;;;;;;;;
2023/07/27 09:35:05;;;;;;;3.33;2.92;;;;;;;16.72;100.00;100261.16;4803926;29;20465;-88
2023/07/27 09:37:36;;;;;;;4.13;2.95;;;;;;;16.76;100.00;100261.44;4809733;29;20054;-88
2023/07/27 09:40:14;;;;;;;3.57;3.10;;;;;;;16.83;100.00;100254.59;4809936;29;20102;-88
2023/07/27 09:42:44;;;;;;;4.65;3.45;;;;;;;16.81;100.00;100262.25;4809479;29;20058;-88
2023/07/27 09:45:13;;;;;;;4.43;3.50;;;;;;;16.77;100.00;100255.69;4809705;29;20034;-88
2023/07/27 09:47:44;;;;;;;5.13;3.30;;;;;;;16.83;100.00;100273.78;4809581;29;20133;-88
2023/07/27 09:50:10;;;;;;;3.78;2.88;;;;;;;16.80;100.00;100262.53;4809899;29;20047;-89
2023/07/27 09:52:44;;;;;;;7.17;3.00;;;;;;;16.86;100.00;100272.41;4825668;29;20054;-88
2023/07/27 09:55:13;;;;;;;3.55;2.53;;;;;;;16.88;100.00;100259.28;4795067;29;20412;-89
2023/07/27 09:57:48;;;;;;;3.00;2.70;;;;;;;16.83;100.00;100251.84;4809408;29;20035;-89
2023/07/27 10:00:19;;;;;;;5.55;2.90;;;;;;;16.81;100.00;100256.78;4795843;29;20475;-88
2023/07/27 10:02:44;;;;;;;3.60;3.28;;;;;;;16.88;100.00;100258.47;4809583;29;20039;-88
2023/07/27 10:05:13;;;;;;;3.10;2.77;;;;;;;16.88;100.00;100266.69;4809414;29;20042;-88
2023/07/27 10:07:43;;;;;;;3.67;3.10;;;;;;;16.91;100.00;100268.88;4809296;29;20486;-88
2023/07/27 10:10:58;;;;;;;4.15;3.70;;;;;;;16.92;100.00;100256.81;4808360;29;20041;-88
2023/07/27 10:13:24;;;;;;;3.40;2.90;;;;;;;17.02;100.00;100270.53;4772158;30;20069;-88
2023/07/27 10:15:56;;;;;;;4.70;2.83;;;;;;;17.04;100.00;100267.50;4787025;30;20175;-88
2023/07/27 10:18:36;;;;;;;3.40;2.90;;;;;;;17.12;100.00;100269.72;4800774;29;20065;-89
2023/07/27 10:21:22;;;;;;;4.13;2.85;;;;;;;17.14;100.00;100273.84;4809361;29;20035;-88
2023/07/27 10:23:59;;;;;;;2.78;2.38;;;;;;;17.10;100.00;100259.03;4809167;29;20034;-88
2023/07/27 10:26:49;;;;;;;2.30;2.10;;;;;;;17.01;100.00;100269.72;4808824;29;20034;-88
2023/07/27 10:29:19;;;;;;;2.22;2.00;;;;;;;16.98;100.00;100267.53;4825387;29;20087;-89
2023/07/27 10:31:59;;;;;;;3.33;2.50;;;;;;;16.91;100.00;100266.16;4825411;29;20388;-89
2023/07/27 10:34:26;;;;;;;4.43;2.30;;;;;;;16.99;100.00;100273.81;4808997;29;20518;-89
2023/07/27 10:36:52;;;;;;;2.53;2.30;;;;;;;16.92;100.00;100265.88;4808541;29;20066;-89
2023/07/27 10:39:27;;;;;;;4.05;2.15;;;;;;;16.87;100.00;100271.34;4809039;29;20077;-89
2023/07/27 10:42:10;;;;;;;2.78;2.50;;;;;;;16.94;100.00;100273.81;4809990;29;20039;-88
2023/07/27 10:44:54;;;;;;;2.80;2.40;;;;;;;16.97;100.00;100265.88;4809135;29;20468;-89
2023/07/27 10:47:50;;;;;;;5.60;2.15;;;;;;;17.00;100.00;100286.44;4809762;29;20046;-89
2023/07/27 10:50:17;;;;;;;2.50;2.30;;;;;;;17.00;100.00;100270.00;4808415;29;20026;-90
2023/07/27 10:52:46;;;;;;;3.15;2.40;;;;;;;17.00;100.00;100270.00;4808281;29;20034;-89
2023/07/27 10:55:17;;;;;;;3.28;2.35;;;;;;;16.98;100.00;100262.03;4825106;29;20114;-89
2023/07/27 10:57:50;;;;;;;2.63;2.43;;;;;;;16.99;100.00;100262.84;4808541;29;20027;-90
2023/07/27 11:00:15;;;;;;;2.58;2.30;;;;;;;16.97;100.00;100274.09;4794511;29;20045;-90
2023/07/27 11:03:02;;;;;;;2.40;2.17;;;;;;;16.88;100.00;100269.44;4808548;29;20116;-90
2023/07/27 11:05:38;;;;;;;2.90;2.47;;;;;;;16.87;100.00;100271.34;4824312;29;20122;-90
2023/07/27 11:08:03;;;;;;;3.08;2.75;;;;;;;16.93;100.00;100261.22;4808464;29;20043;-90
2023/07/27 11:10:35;;;;;;;3.47;2.40;;;;;;;16.93;100.00;100267.53;4808222;29;20053;-90
2023/07/27 11:13:03;;;;;;;2.30;2.08;;;;;;;17.04;100.00;100260.13;4808475;29;20039;-90
2023/07/27 11:15:34;;;;;;;2.87;2.53;;;;;;;17.09;100.00;100260.13;4808396;29;20479;-90
2023/07/27 11:18:00;;;;;;;3.28;2.50;;;;;;;17.10;100.00;100255.47;4793515;29;20396;-90
2023/07/27 11:20:28;;;;;;;2.03;1.83;;;;;;;17.08;100.00;100260.41;4809291;29;20046;-90
2023/07/27 11:22:56;;;;;;;4.35;2.13;;;;;;;17.11;100.00;100257.09;4812340;29;20030;-90
2023/07/27 11:25:32;;;;;;;;;;;;;;;;;;;;;
2023/07/27 11:27:59;;;;;;;2.17;1.98;;;;;;;17.33;100.00;100252.19;4828925;29;20045;-90
2023/07/27 11:30:30;;;;;;;2.15;1.90;;;;;;;17.28;100.00;100259.59;4811872;29;20031;-90
2023/07/27 11:33:03;;;;;;;1.90;1.70;;;;;;;17.27;100.00;100252.44;4811814;29;20065;-90
2023/07/27 11:35:29;;;;;;;1.90;1.80;;;;;;;17.29;100.00;100255.75;4828176;29;20034;-90
2023/07/27 11:37:57;;;;;;;2.03;1.80;;;;;;;17.31;100.00;100254.38;4811705;29;20476;-90
2023/07/27 11:40:23;;;;;;;2.28;1.75;;;;;;;17.35;100.00;100249.16;4811792;29;20035;-90
2023/07/27 11:42:49;;;;;;;2.37;1.80;;;;;;;17.38;100.00;100253.25;4811127;29;20548;-90
2023/07/27 11:45:19;;;;;;;2.08;1.70;;;;;;;17.34;100.00;100248.34;4811504;29;20066;-90
2023/07/27 11:47:50;;;;;;;1.90;1.80;;;;;;;17.28;100.00;100257.66;4827748;29;20500;-89
2023/07/27 11:50:20;;;;;;;2.75;1.52;;;;;;;17.22;100.00;100247.78;4797902;29;20039;-90
2023/07/27 11:52:58;;;;;;;2.42;1.90;;;;;;;17.28;100.00;100254.91;4813129;29;20101;-91
2023/07/27 11:55:34;;;;;;;2.78;1.80;;;;;;;17.38;100.00;100256.00;4812370;29;20102;-90
2023/07/27 11:58:03;;;;;;;3.55;1.90;;;;;;;17.39;100.00;100257.66;4811453;29;20125;-90
2023/07/27 12:00:29;;;;;;;1.73;1.60;;;;;;;17.43;100.00;100258.75;4811382;29;20048;-90
2023/07/27 12:03:05;;;;;;;3.08;1.90;;;;;;;17.43;100.00;100247.78;4797037;29;20412;-91
2023/07/27 12:05:36;;;;;;;2.13;1.52;;;;;;;17.46;100.00;100259.00;4811486;29;20034;-90
2023/07/27 12:08:24;;;;;;;2.33;1.70;;;;;;;17.47;100.00;100249.69;4796460;29;20038;-90
2023/07/27 12:10:56;;;;;;;3.05;2.05;;;;;;;17.57;100.00;100250.78;4804878;29;20404;-91
2023/07/27 12:13:24;;;;;;;3.37;2.23;;;;;;;17.84;100.00;100242.22;4811151;29;20487;-90
2023/07/27 12:16:10;;;;;;;2.20;2.00;;;;;;;17.86;100.00;100245.50;4810787;29;20050;-90
2023/07/27 12:18:45;;;;;;;2.35;1.90;;;;;;;17.81;100.00;100243.59;4810996;29;20484;-91
2023/07/27 12:21:14;;;;;;;2.08;1.88;;;;;;;17.88;100.00;100246.88;4797190;29;20035;-90
2023/07/27 12:23:45;;;;;;;2.10;1.90;;;;;;;17.87;100.00;100247.97;4810955;29;20034;-90
2023/07/27 12:26:26;;;;;;;1.73;1.40;;;;;;;17.94;100.00;100246.88;4810803;29;20031;-90
2023/07/27 12:28:57;;;;;;;1.98;1.77;;;;;;;17.95;100.00;100251.28;4811717;29;20463;-91
2023/07/27 12:31:45;;;;;;;3.70;1.90;;;;;;;17.94;100.00;100249.63;4810619;29;20026;-91
2023/07/27 12:34:18;;;;;;;1.65;1.55;;;;;;;18.03;100.00;100253.44;4810378;29;20035;-91
2023/07/27 12:36:49;;;;;;;2.22;1.60;;;;;;;17.99;100.00;100246.88;4810757;29;20045;-91
2023/07/27 12:39:25;;;;;;;;;;;;;;;;;;;;;
2023/07/27 12:41:56;;;;;;;2.30;2.10;;;;;;;17.99;100.00;100247.69;4826354;29;20027;-91
2023/07/27 12:44:46;;;;;;;2.25;2.00;;;;;;;17.92;100.00;100252.66;4810749;29;20034;-91
2023/07/27 12:47:22;;;;;;;3.33;1.90;;;;;;;17.93;100.00;100250.75;4810188;29;20050;-91
2023/07/27 12:49:47;;;;;;;2.22;2.03;;;;;;;17.93;100.00;100245.25;4810837;29;20121;-91
2023/07/27 12:52:23;;;;;;;2.70;1.90;;;;;;;17.93;100.00;100264.47;4810719;29;20130;-91
2023/07/27 12:55:16;;;;;;;;;;;;;;;;;;;;;
2023/07/27 12:57:42;;;;;;;2.83;1.70;;;;;;;17.83;100.00;100263.38;4826753;29;20073;-91
2023/07/27 13:00:15;;;;;;;1.67;1.50;;;;;;;17.75;100.00;100268.59;4810537;29;20174;-91
2023/07/27 13:02:47;;;;;;;1.70;1.60;;;;;;;17.70;100.00;100242.81;4810660;29;20044;-91
2023/07/27 13:05:20;;;;;;;2.10;1.90;;;;;;;17.74;100.00;100266.94;4810470;29;20453;-91
2023/07/27 13:07:55;;;;;;;5.60;2.72;;;;;;;17.71;100.00;100255.41;4810607;29;20036;-91
2023/07/27 13:10:20;;;;;;;2.50;2.30;;;;;;;17.72;100.00;100261.72;4810535;29;20035;-91
2023/07/27 13:12:51;;;;;;;2.60;2.40;;;;;;;17.71;100.00;100257.34;4809932;29;20032;-91
2023/07/27 13:15:29;;;;;;;;;;;;;;;;;;;;;
2023/07/27 13:18:00;;;;;;;3.90;2.50;;;;;;;17.62;100.00;100248.84;4811445;29;20049;-90
2023/07/27 13:20:32;;;;;;;3.00;2.67;;;;;;;17.67;100.00;100259.81;4810317;29;20035;-90
2023/07/27 13:23:00;;;;;;;3.47;2.70;;;;;;;17.69;100.00;100260.34;4795388;29;20396;-91
2023/07/27 13:25:26;;;;;;;3.08;2.78;;;;;;;17.65;100.00;100270.25;4794861;29;20549;-91
2023/07/27 13:27:56;;;;;;;4.20;2.97;;;;;;;17.65;100.00;100263.94;4810249;29;20046;-90
2023/07/27 13:30:24;;;;;;;5.93;2.78;;;;;;;17.66;100.00;100263.66;4810075;29;20065;-90
2023/07/27 13:32:55;;;;;;;2.90;2.70;;;;;;;17.67;100.00;100270.81;4809927;29;20049;-90
2023/07/27 13:35:21;;;;;;;4.20;3.05;;;;;;;17.62;100.00;100259.00;4809908;29;20030;-90
2023/07/27 13:37:50;;;;;;;3.30;3.00;;;;;;;17.56;100.00;100246.41;4825852;29;20147;-90
2023/07/27 13:40:28;;;;;;;3.42;3.00;;;;;;;17.58;100.00;100261.47;4809711;29;20121;-89
2023/07/27 13:42:55;;;;;;;3.15;2.85;;;;;;;17.61;100.00;100266.44;4794494;29;20045;-90
2023/07/27 13:45:26;;;;;;;3.10;2.80;;;;;;;17.59;100.00;100256.81;4825782;29;20467;-91
2023/07/27 13:47:51;;;;;;;5.47;3.60;;;;;;;17.61;100.00;100265.59;4809520;29;20042;-90
2023/07/27 13:50:19;;;;;;;4.23;3.50;;;;;;;17.55;100.00;100262.03;4809960;29;20051;-90
2023/07/27 13:52:52;;;;;;;3.43;3.13;;;;;;;17.55;100.00;100264.75;4809478;29;20761;-90
2023/07/27 13:55:17;;;;;;;3.72;3.42;;;;;;;17.54;100.00;100268.63;4809733;29;20071;-90
2023/07/27 13:57:53;;;;;;;3.75;3.30;;;;;;;17.51;100.00;100266.44;4809454;29;20034;-90
2023/07/27 14:00:21;;;;;;;4.97;3.90;;;;;;;17.58;100.00;100266.13;4809637;29;20042;-90
2023/07/27 14:02:47;;;;;;;4.20;3.80;;;;;;;17.62;100.00;100270.78;4810062;29;20035;-89
2023/07/27 14:05:17;;;;;;;4.37;3.60;;;;;;;17.61;100.00;100268.34;4809580;29;20037;-89
2023/07/27 14:08:02;;;;;;;6.72;3.80;;;;;;;17.71;100.00;100271.06;4809331;29;20468;-90
2023/07/27 14:10:35;;;;;;;4.05;3.65;;;;;;;17.53;100.00;100270.53;4809105;29;20034;-91
2023/07/27 14:13:03;;;;;;;5.78;3.10;;;;;;;17.57;100.00;100259.84;4808917;29;20034;-90
2023/07/27 14:15:31;;;;;;;3.20;2.90;;;;;;;17.44;100.00;100269.44;4809102;29;20038;-91
2023/07/27 14:17:59;;;;;;;3.03;2.70;;;;;;;17.39;100.00;100271.38;4809188;29;20057;-91
2023/07/27 14:20:30;;;;;;;3.10;2.80;;;;;;;17.44;100.00;100279.59;4809167;29;20057;-91
2023/07/27 14:22:58;;;;;;;4.15;3.10;;;;;;;17.47;100.00;100273.56;4809290;29;20099;-92
2023/07/27 14:25:26;;;;;;;4.38;3.25;;;;;;;17.50;100.00;100268.34;4809356;29;20039;-92
2023/07/27 14:28:07;;;;;;;4.43;2.97;;;;;;;17.58;100.00;100271.63;4793748;29;20105;-93
2023/07/27 14:30:33;;;;;;;3.40;3.10;;;;;;;17.43;100.00;100277.94;4809082;29;20038;-93
2023/07/27 14:33:01;;;;;;;4.75;3.20;;;;;;;17.39;100.00;100272.22;4809615;29;20034;-93
2023/07/27 14:35:35;;;;;;;5.15;3.65;;;;;;;17.40;100.00;100287.53;4809470;29;20030;-90
2023/07/27 14:38:01;;;;;;;4.55;3.72;;;;;;;17.39;100.00;100285.06;4811030;29;20100;-92
2023/07/27 14:40:36;;;;;;;5.80;4.30;;;;;;;17.42;100.00;100285.38;4808818;29;20519;-91